PHTO/ITO METAR and TAF weather

Enter ICAO airport designator
Station Type Date Time Source
PHTO METAR 2020/09/18 16:53 UTC NOAA

PHTO 181653Z 24005KT 10SM SCT029 BKN042 23/17 A3005 RMK AO2 SLP175 T02280172


Station Type Date Time Source
PHTO Decoded METAR 2020/09/18 16:53 UTC NOAA

HILO INTERNATIONAL AIRPORT, HI, United States (PHTO) 19-43N 155-03W 12M
Sep 18, 2020 - 12:53 PM EDT / 2020.09.18 1653 UTC
Wind: from the WSW (240 degrees) at 6 MPH (5 KT):0
Visibility: 10 mile(s):0
Sky conditions: mostly cloudy
Temperature: 73.0 F (22.8 C)
Dew Point: 63.0 F (17.2 C)
Relative Humidity: 70%
Pressure (altimeter): 30.05 in. Hg (1017 hPa)
ob: PHTO 181653Z 24005KT 10SM SCT029 BKN042 23/17 A3005 RMK AO2 SLP175 T02280172
cycle: 17

Station Type Date Time Source
PHTO TAF 2020/09/18 18:28 UTC NOAA

TAF PHTO 181726Z 1818/1918 24005KT P6SM VCSH SCT025 BKN035 BKN250
FM182000 08011KT P6SM FEW030 SCT045
FM190500 24005KT P6SM VCSH SCT025 BKN040

Example: see airport list